createdAt,value
2023-01-03T00:00:17.284Z,92.73
2023-01-03T00:01:17.174Z,92.83
2023-01-03T00:02:17.224Z,92.73
2023-01-03T00:03:17.150Z,92.93
2023-01-03T00:04:17.212Z,93.04
2023-01-03T00:05:17.135Z,93.14
2023-01-03T00:06:17.114Z,93.08
2023-01-03T00:07:17.095Z,92.93
2023-01-03T00:08:17.094Z,93.14
2023-01-03T00:09:17.082Z,93.18
2023-01-03T00:10:17.074Z,93.24
2023-01-03T00:11:17.042Z,93.29
2023-01-03T00:12:17.051Z,93.49
2023-01-03T00:13:17.021Z,93.18
2023-01-03T00:14:17.002Z,93.08
2023-01-03T00:15:17.017Z,93.18
2023-01-03T00:16:17.033Z,93.18
2023-01-03T00:17:17.001Z,93.08
2023-01-03T00:18:16.977Z,93.18
2023-01-03T00:19:16.941Z,93.29
2023-01-03T00:20:16.940Z,93.29
2023-01-03T00:21:16.913Z,93.49
2023-01-03T00:22:16.913Z,93.59
2023-01-03T00:23:16.891Z,93.59
2023-01-03T00:24:16.877Z,93.59
2023-01-03T00:25:16.921Z,93.49
2023-01-03T00:26:16.862Z,93.59
2023-01-03T00:27:16.834Z,93.59
2023-01-03T00:28:16.831Z,93.80
2023-01-03T00:29:16.812Z,93.80
2023-01-03T00:30:16.807Z,94.01
2023-01-03T00:31:16.870Z,93.90
2023-01-03T00:32:16.773Z,94.01
2023-01-03T00:33:16.759Z,94.11
2023-01-03T00:34:16.757Z,94.01
2023-01-03T00:35:16.734Z,94.11
2023-01-03T00:36:16.740Z,94.21
2023-01-03T00:37:16.709Z,94.31
2023-01-03T00:38:16.696Z,94.42
2023-01-03T00:39:16.685Z,94.42
2023-01-03T00:40:16.690Z,94.26
2023-01-03T00:41:16.682Z,94.36
2023-01-03T00:42:16.655Z,94.21
2023-01-03T00:43:16.627Z,94.11
2023-01-03T00:44:16.624Z,94.46
2023-01-03T00:45:19.883Z,94.26
2023-01-03T00:46:16.657Z,94.67
2023-01-03T00:47:16.582Z,94.36
2023-01-03T00:48:16.566Z,94.56
2023-01-03T00:49:16.553Z,94.56
2023-01-03T00:50:16.548Z,94.26
2023-01-03T00:51:16.537Z,94.36
2023-01-03T00:52:16.521Z,94.36
2023-01-03T00:53:16.498Z,94.05
2023-01-03T00:54:16.485Z,94.15
2023-01-03T00:55:16.478Z,94.15
2023-01-03T00:56:16.485Z,94.36
2023-01-03T00:57:16.444Z,94.26
2023-01-03T00:58:16.441Z,94.26
2023-01-03T00:59:16.415Z,94.36
2023-01-03T01:00:16.426Z,94.15
2023-01-03T01:01:16.545Z,94.05
2023-01-03T01:02:16.610Z,94.05
2023-01-03T01:03:16.553Z,93.95
2023-01-03T01:04:16.367Z,93.95
2023-01-03T01:05:16.350Z,94.05
2023-01-03T01:06:16.362Z,93.95
2023-01-03T01:07:16.314Z,94.26
2023-01-03T01:08:16.309Z,94.46
2023-01-03T01:09:16.293Z,94.36
2023-01-03T01:10:16.284Z,94.56
2023-01-03T01:11:16.283Z,94.36
2023-01-03T01:12:16.268Z,94.46
2023-01-03T01:13:16.242Z,94.56
2023-01-03T01:14:16.233Z,94.67
2023-01-03T01:15:16.210Z,94.77
2023-01-03T01:16:16.254Z,94.71
2023-01-03T01:17:22.240Z,94.60
2023-01-03T01:18:17.185Z,94.60
2023-01-03T01:19:16.184Z,94.51
2023-01-03T01:20:16.157Z,94.60
2023-01-03T01:21:16.147Z,94.30
2023-01-03T01:22:16.141Z,94.40
2023-01-03T01:23:16.111Z,94.60
2023-01-03T01:24:18.147Z,94.51
2023-01-03T01:25:16.103Z,94.71
2023-01-03T01:26:16.092Z,94.92
2023-01-03T01:27:16.052Z,94.92
2023-01-03T01:28:16.050Z,94.81
2023-01-03T01:29:16.035Z,94.60
2023-01-03T01:30:16.021Z,94.60
2023-01-03T01:31:16.076Z,94.71
2023-01-03T01:32:16.002Z,94.71
2023-01-03T01:33:15.982Z,94.60
2023-01-03T01:34:15.997Z,94.51
2023-01-03T01:35:15.961Z,94.40
2023-01-03T01:36:15.960Z,94.30
2023-01-03T01:37:15.949Z,94.30
2023-01-03T01:38:15.925Z,94.40
2023-01-03T01:39:15.930Z,94.30
2023-01-03T01:40:15.894Z,94.24
2023-01-03T01:41:15.897Z,94.24
2023-01-03T01:42:19.873Z,94.34
2023-01-03T01:43:15.859Z,94.45
2023-01-03T01:44:15.864Z,94.55
2023-01-03T01:45:15.842Z,94.24
2023-01-03T01:46:15.914Z,94.45
2023-01-03T01:47:15.808Z,94.45
2023-01-03T01:48:15.790Z,94.55
2023-01-03T01:49:15.771Z,94.13
2023-01-03T01:50:15.782Z,94.03
2023-01-03T01:51:15.766Z,94.03
2023-01-03T01:52:15.741Z,93.62
2023-01-03T01:53:15.726Z,93.83
2023-01-03T01:54:15.707Z,93.83
2023-01-03T01:55:15.714Z,93.93
2023-01-03T01:56:15.695Z,94.13
2023-01-03T01:57:15.679Z,94.13
2023-01-03T01:58:15.658Z,93.93
2023-01-03T01:59:15.646Z,94.03
2023-01-03T02:00:15.629Z,93.83
2023-01-03T02:01:15.741Z,93.62
2023-01-03T02:02:15.718Z,93.41
2023-01-03T02:03:15.659Z,93.52
2023-01-03T02:04:15.578Z,93.52
2023-01-03T02:05:15.573Z,93.11
2023-01-03T02:06:15.564Z,92.90
2023-01-03T02:07:15.561Z,92.90
2023-01-03T02:08:15.518Z,93.01
2023-01-03T02:09:15.518Z,92.69
2023-01-03T02:10:15.497Z,92.69
2023-01-03T02:11:15.516Z,92.80
2023-01-03T02:12:15.466Z,92.59
2023-01-03T02:13:15.467Z,92.80
2023-01-03T02:14:15.445Z,92.90
2023-01-03T02:15:15.440Z,92.90
2023-01-03T02:16:15.476Z,93.01
2023-01-03T02:17:15.407Z,93.01
2023-01-03T02:18:15.389Z,92.90
2023-01-03T02:19:15.383Z,93.01
2023-01-03T02:20:15.388Z,93.11
2023-01-03T02:21:19.784Z,93.21
2023-01-03T02:22:15.343Z,93.11
2023-01-03T02:23:15.334Z,93.21
2023-01-03T02:24:15.320Z,93.31
2023-01-03T02:25:15.333Z,93.41
2023-01-03T02:26:15.296Z,93.41
2023-01-03T02:27:15.281Z,93.41
2023-01-03T02:28:15.262Z,93.41
2023-01-03T02:29:15.251Z,93.11
2023-01-03T02:30:15.231Z,93.31
2023-01-03T02:31:15.264Z,93.31
2023-01-03T02:32:15.220Z,93.25
2023-01-03T02:33:15.217Z,93.25
2023-01-03T02:34:15.203Z,93.25
2023-01-03T02:35:15.182Z,93.35
2023-01-03T02:36:15.181Z,93.25
2023-01-03T02:37:15.153Z,93.35
2023-01-03T02:38:15.143Z,93.35
2023-01-03T02:39:19.114Z,93.46
2023-01-03T02:40:16.121Z,93.66
2023-01-03T02:41:15.121Z,93.60
2023-01-03T02:42:15.079Z,93.71
2023-01-03T02:43:15.078Z,93.81
2023-01-03T02:44:15.058Z,93.81
2023-01-03T02:45:15.049Z,93.91
2023-01-03T02:46:15.137Z,93.91
2023-01-03T02:47:15.032Z,93.71
2023-01-03T02:48:15.010Z,93.50
2023-01-03T02:49:15.000Z,93.40
2023-01-03T02:50:14.992Z,93.40
2023-01-03T02:51:15.022Z,93.30
2023-01-03T02:52:14.961Z,93.19
2023-01-03T02:53:14.948Z,93.19
2023-01-03T02:54:14.949Z,93.24
2023-01-03T02:55:14.942Z,93.34
2023-01-03T02:56:14.917Z,93.54
2023-01-03T02:57:14.900Z,93.65
2023-01-03T02:58:14.877Z,93.75
2023-01-03T02:59:14.874Z,93.85
2023-01-03T03:00:14.848Z,93.85
2023-01-03T03:01:14.946Z,93.75
2023-01-03T03:02:14.947Z,93.75
2023-01-03T03:03:14.893Z,93.96
2023-01-03T03:04:14.811Z,93.96
2023-01-03T03:05:14.791Z,94.06
2023-01-03T03:06:14.798Z,94.27
2023-01-03T03:07:14.768Z,94.27
2023-01-03T03:08:14.787Z,94.17
2023-01-03T03:09:14.742Z,94.06
2023-01-03T03:10:14.724Z,94.31
2023-01-03T03:11:14.717Z,94.42
2023-01-03T03:12:14.696Z,94.62
2023-01-03T03:13:14.688Z,94.82
2023-01-03T03:14:14.676Z,94.82
2023-01-03T03:15:14.664Z,94.82
2023-01-03T03:16:14.704Z,95.03
2023-01-03T03:17:14.643Z,95.18
2023-01-03T03:18:14.648Z,95.07
2023-01-03T03:19:14.603Z,95.28
2023-01-03T03:20:14.603Z,95.28
2023-01-03T03:21:14.624Z,95.39
2023-01-03T03:22:14.564Z,95.49
2023-01-03T03:23:14.553Z,95.59
2023-01-03T03:24:14.545Z,95.70
2023-01-03T03:25:14.533Z,95.74
2023-01-03T03:26:14.528Z,96.05
2023-01-03T03:27:14.502Z,96.05
2023-01-03T03:28:14.575Z,96.26
2023-01-03T03:29:14.472Z,96.36
2023-01-03T03:30:14.467Z,96.51
2023-01-03T03:31:14.534Z,96.61
2023-01-03T03:32:14.436Z,96.82
2023-01-03T03:33:14.423Z,97.13
2023-01-03T03:34:14.411Z,97.38
2023-01-03T03:35:14.816Z,97.89
2023-01-03T03:36:14.391Z,97.89
2023-01-03T03:37:16.019Z,98.10
2023-01-03T03:38:15.590Z,98.06
2023-01-03T03:39:14.342Z,98.00
2023-01-03T03:40:14.324Z,97.79
2023-01-03T03:41:14.364Z,98.00
2023-01-03T03:42:14.301Z,98.21
2023-01-03T03:43:14.350Z,98.10
2023-01-03T03:44:14.291Z,98.00
2023-01-03T03:45:14.274Z,98.10
2023-01-03T03:46:14.273Z,98.00
2023-01-03T03:47:14.334Z,97.89
2023-01-03T03:48:14.227Z,97.69
2023-01-03T03:49:14.224Z,97.59
2023-01-03T03:50:14.194Z,98.46
2023-01-03T03:51:14.219Z,98.87
2023-01-03T03:52:14.198Z,98.97
2023-01-03T03:53:14.159Z,99.08
2023-01-03T03:54:14.147Z,99.29
2023-01-03T03:55:14.146Z,99.24
2023-01-03T03:56:14.116Z,99.24
2023-01-03T03:57:14.132Z,99.14
2023-01-03T03:58:14.088Z,98.72
2023-01-03T03:59:14.080Z,98.72
2023-01-03T04:00:14.074Z,98.62
2023-01-03T04:01:14.103Z,98.72
2023-01-03T04:02:14.226Z,98.62
2023-01-03T04:03:14.193Z,98.52
2023-01-03T04:04:14.007Z,98.41
2023-01-03T04:05:14.003Z,98.31
2023-01-03T04:06:13.974Z,98.31
2023-01-03T04:07:13.986Z,98.41
2023-01-03T04:08:13.963Z,98.41
2023-01-03T04:09:13.961Z,98.06
2023-01-03T04:10:13.994Z,98.06
2023-01-03T04:11:13.960Z,97.96
2023-01-03T04:12:13.979Z,97.75
2023-01-03T04:13:13.936Z,97.54
2023-01-03T04:14:13.902Z,97.44
2023-01-03T04:15:13.874Z,97.44
2023-01-03T04:16:13.960Z,97.02
2023-01-03T04:17:13.866Z,96.92
2023-01-03T04:18:13.845Z,96.82
2023-01-03T04:19:13.828Z,96.82
2023-01-03T04:20:13.798Z,96.61
2023-01-03T04:21:20.169Z,96.66
2023-01-03T04:22:14.783Z,96.76
2023-01-03T04:23:13.785Z,96.97
2023-01-03T04:24:13.750Z,97.28
2023-01-03T04:25:13.742Z,97.49
2023-01-03T04:26:13.723Z,97.74
2023-01-03T04:27:13.735Z,98.05
2023-01-03T04:28:13.693Z,98.25
2023-01-03T04:29:13.697Z,98.46
2023-01-03T04:30:13.697Z,98.77
2023-01-03T04:31:13.697Z,99.08
2023-01-03T04:32:13.765Z,99.08
2023-01-03T04:33:13.645Z,99.08
2023-01-03T04:34:13.621Z,98.97
2023-01-03T04:35:13.613Z,98.93
2023-01-03T04:36:13.590Z,98.93
2023-01-03T04:37:13.643Z,98.83
2023-01-03T04:38:13.567Z,98.72
2023-01-03T04:39:13.565Z,98.72
2023-01-03T04:40:13.544Z,98.62
2023-01-03T04:41:13.534Z,98.62
2023-01-03T04:42:13.526Z,98.52
2023-01-03T04:43:13.505Z,98.52
2023-01-03T04:44:13.490Z,98.52
2023-01-03T04:45:13.478Z,98.62
2023-01-03T04:46:13.519Z,98.72
2023-01-03T04:47:13.467Z,98.72
2023-01-03T04:48:13.446Z,98.72
2023-01-03T04:49:13.469Z,98.72
2023-01-03T04:50:13.416Z,98.72
2023-01-03T04:51:13.403Z,98.83
2023-01-03T04:52:13.391Z,98.72
2023-01-03T04:53:13.374Z,98.83
2023-01-03T04:54:13.357Z,98.93
2023-01-03T04:55:13.347Z,98.93
2023-01-03T04:56:13.329Z,99.04
2023-01-03T04:57:13.332Z,99.04
2023-01-03T04:58:13.300Z,99.04
2023-01-03T04:59:13.288Z,99.04
2023-01-03T05:00:13.268Z,99.14
2023-01-03T05:01:13.406Z,98.93
2023-01-03T05:02:13.414Z,98.93
2023-01-03T05:03:13.287Z,98.78
2023-01-03T05:04:13.278Z,98.68
2023-01-03T05:05:13.219Z,98.57
2023-01-03T05:06:13.195Z,98.57
2023-01-03T05:07:13.200Z,98.41
2023-01-03T05:08:13.167Z,98.41
2023-01-03T05:09:13.157Z,98.41
2023-01-03T05:10:13.141Z,98.31
2023-01-03T05:11:13.126Z,98.41
2023-01-03T05:12:13.125Z,98.31
2023-01-03T05:13:13.106Z,98.41
2023-01-03T05:14:14.665Z,98.62
2023-01-03T05:15:13.078Z,98.72
2023-01-03T05:16:13.165Z,98.93
2023-01-03T05:17:13.070Z,99.04
2023-01-03T05:18:13.049Z,99.04
2023-01-03T05:19:13.036Z,99.04
2023-01-03T05:20:13.014Z,99.14
2023-01-03T05:21:13.004Z,99.04
2023-01-03T05:22:12.995Z,98.88
2023-01-03T05:23:12.972Z,98.68
2023-01-03T05:24:12.965Z,98.47
2023-01-03T05:25:12.943Z,98.37
2023-01-03T05:26:12.931Z,98.16
2023-01-03T05:27:12.942Z,98.16
2023-01-03T05:28:17.251Z,98.01
2023-01-03T05:29:12.894Z,97.91
2023-01-03T05:30:12.873Z,97.81
2023-01-03T05:31:12.882Z,97.60
2023-01-03T05:32:12.909Z,97.39
2023-01-03T05:33:12.843Z,97.29
2023-01-03T05:34:12.822Z,97.19
2023-01-03T05:35:12.823Z,97.04
2023-01-03T05:36:12.800Z,97.08
2023-01-03T05:37:12.802Z,96.98
2023-01-03T05:38:12.770Z,97.04
2023-01-03T05:39:12.796Z,96.94
2023-01-03T05:40:12.757Z,96.83
2023-01-03T05:41:12.760Z,96.62
2023-01-03T05:42:12.752Z,96.42
2023-01-03T05:43:12.709Z,96.31
2023-01-03T05:44:12.697Z,96.31
2023-01-03T05:45:12.687Z,96.52
2023-01-03T05:46:12.725Z,96.62
2023-01-03T05:47:12.669Z,96.62
2023-01-03T05:48:12.653Z,96.83
2023-01-03T05:49:12.627Z,97.04
2023-01-03T05:50:12.633Z,97.14
2023-01-03T05:51:12.633Z,97.04
2023-01-03T05:52:12.619Z,97.04
2023-01-03T05:53:12.576Z,97.14
2023-01-03T05:54:12.572Z,97.14
2023-01-03T05:55:12.549Z,97.45
2023-01-03T05:56:12.556Z,97.34
2023-01-03T05:57:12.546Z,97.34
2023-01-03T05:58:12.540Z,97.25
2023-01-03T05:59:12.508Z,97.20
2023-01-03T06:00:12.494Z,97.20
2023-01-03T06:01:12.535Z,97.30
2023-01-03T06:02:12.693Z,97.41
2023-01-03T06:03:12.498Z,97.30
2023-01-03T06:04:12.504Z,97.20
2023-01-03T06:05:12.427Z,97.20
2023-01-03T06:06:12.411Z,97.30
2023-01-03T06:07:12.415Z,97.20
2023-01-03T06:08:12.379Z,97.41
2023-01-03T06:09:12.365Z,97.51
2023-01-03T06:10:12.357Z,97.72
2023-01-03T06:11:12.357Z,97.82
2023-01-03T06:12:12.345Z,97.92
2023-01-03T06:13:12.324Z,98.33
2023-01-03T06:14:12.304Z,98.44
2023-01-03T06:15:12.286Z,98.75
2023-01-03T06:16:12.324Z,98.85
2023-01-03T06:17:12.348Z,98.96
2023-01-03T06:18:12.254Z,98.80
2023-01-03T06:19:12.252Z,98.75
2023-01-03T06:20:12.235Z,98.75
2023-01-03T06:21:12.212Z,98.85
2023-01-03T06:22:12.220Z,98.85
2023-01-03T06:23:12.185Z,98.96
2023-01-03T06:24:12.203Z,98.85
2023-01-03T06:25:12.155Z,98.96
2023-01-03T06:26:12.159Z,98.96
2023-01-03T06:27:12.154Z,99.16
2023-01-03T06:28:12.124Z,99.26
2023-01-03T06:29:12.105Z,99.41
2023-01-03T06:30:12.104Z,99.62
2023-01-03T06:31:12.261Z,99.52
2023-01-03T06:32:12.083Z,99.57
2023-01-03T06:33:12.118Z,99.68
2023-01-03T06:34:12.045Z,99.68
2023-01-03T06:35:12.100Z,99.68
2023-01-03T06:36:12.021Z,99.68
2023-01-03T06:37:12.004Z,99.68
2023-01-03T06:38:12.001Z,99.57
2023-01-03T06:39:11.978Z,99.47
2023-01-03T06:40:11.962Z,99.47
2023-01-03T06:41:11.977Z,99.37
2023-01-03T06:42:11.940Z,99.26
2023-01-03T06:43:11.951Z,99.26
2023-01-03T06:44:11.910Z,99.21
2023-01-03T06:45:11.890Z,99.31
2023-01-03T06:46:11.950Z,99.41
2023-01-03T06:47:11.868Z,99.41
2023-01-03T06:48:11.870Z,99.62
2023-01-03T06:49:11.858Z,99.62
2023-01-03T06:50:11.851Z,99.62
2023-01-03T06:51:11.826Z,99.52
2023-01-03T06:52:11.832Z,99.41
2023-01-03T06:53:11.819Z,99.41
2023-01-03T06:54:11.787Z,99.31
2023-01-03T06:55:11.768Z,99.31
2023-01-03T06:56:11.759Z,99.41
2023-01-03T06:57:11.744Z,99.31
2023-01-03T06:58:12.739Z,99.21
2023-01-03T06:59:11.717Z,99.21
2023-01-03T07:00:11.718Z,99.21
2023-01-03T07:01:11.844Z,99.10
2023-01-03T07:02:11.806Z,99.21
2023-01-03T07:03:12.008Z,99.21
2023-01-03T07:04:11.717Z,99.16
2023-01-03T07:05:11.629Z,99.06
2023-01-03T07:06:11.633Z,99.06
2023-01-03T07:07:11.618Z,99.06
2023-01-03T07:08:11.605Z,99.06
2023-01-03T07:09:11.577Z,99.16
2023-01-03T07:10:11.576Z,99.06
2023-01-03T07:11:11.554Z,99.06
2023-01-03T07:12:11.544Z,99.06
2023-01-03T07:13:11.565Z,99.06
2023-01-03T07:14:11.543Z,99.16
2023-01-03T07:15:11.511Z,99.16
2023-01-03T07:16:11.587Z,99.16
2023-01-03T07:17:11.477Z,99.16
2023-01-03T07:18:11.497Z,99.26
2023-01-03T07:19:11.452Z,99.16
2023-01-03T07:20:11.449Z,99.26
2023-01-03T07:21:11.434Z,99.47
2023-01-03T07:22:11.438Z,99.57
2023-01-03T07:23:11.419Z,99.57
2023-01-03T07:24:11.396Z,99.57
2023-01-03T07:25:11.364Z,99.47
2023-01-03T07:26:11.372Z,99.47
2023-01-03T07:27:11.348Z,99.47
2023-01-03T07:28:11.445Z,99.26
2023-01-03T07:29:11.322Z,99.26
2023-01-03T07:30:11.309Z,99.16
2023-01-03T07:31:11.327Z,99.11
2023-01-03T07:32:11.283Z,99.11
2023-01-03T07:33:11.293Z,99.16
2023-01-03T07:34:11.261Z,99.16
2023-01-03T07:35:11.238Z,99.16
2023-01-03T07:36:18.723Z,99.06
2023-01-03T07:37:18.736Z,99.06
2023-01-03T07:38:19.922Z,98.96
2023-01-03T07:39:18.691Z,98.91
2023-01-03T07:40:18.681Z,98.96
2023-01-03T07:41:19.689Z,98.91
2023-01-03T07:42:18.666Z,98.91
2023-01-03T07:43:11.144Z,98.80
2023-01-03T07:44:11.126Z,98.80
2023-01-03T07:45:18.623Z,98.85
2023-01-03T07:46:11.200Z,98.75
2023-01-03T07:47:11.087Z,98.75
2023-01-03T07:48:11.085Z,98.85
2023-01-03T07:49:12.176Z,98.85
2023-01-03T07:50:11.043Z,98.85
2023-01-03T07:51:11.034Z,98.75
2023-01-03T07:52:11.012Z,98.65
2023-01-03T07:53:11.014Z,98.44
2023-01-03T07:54:11.014Z,98.44
2023-01-03T07:55:11.000Z,98.23
2023-01-03T07:56:13.287Z,98.02
2023-01-03T07:57:10.944Z,97.92
2023-01-03T07:58:10.953Z,97.82
2023-01-03T07:59:10.926Z,97.72
2023-01-03T08:00:10.919Z,97.72
2023-01-03T08:01:11.095Z,97.82
2023-01-03T08:02:10.998Z,97.72
2023-01-03T08:03:11.902Z,97.61
2023-01-03T08:04:10.894Z,97.41
2023-01-03T08:05:10.910Z,97.20
2023-01-03T08:06:10.836Z,96.99
2023-01-03T08:07:10.820Z,96.89
2023-01-03T08:08:10.825Z,96.84
2023-01-03T08:09:10.792Z,96.84
2023-01-03T08:10:10.780Z,96.74
2023-01-03T08:11:10.760Z,96.64
2023-01-03T08:12:10.760Z,96.33
2023-01-03T08:13:10.747Z,96.23
2023-01-03T08:14:10.728Z,96.23
2023-01-03T08:15:10.719Z,96.23
2023-01-03T08:16:10.736Z,96.12
2023-01-03T08:17:10.701Z,96.02
2023-01-03T08:18:10.687Z,96.02
2023-01-03T08:19:10.660Z,96.23
2023-01-03T08:20:10.654Z,96.23
2023-01-03T08:21:10.631Z,96.27
2023-01-03T08:22:10.639Z,96.37
2023-01-03T08:23:10.619Z,96.37
2023-01-03T08:24:10.612Z,96.37
2023-01-03T08:25:10.578Z,96.37
2023-01-03T08:26:10.585Z,96.48
2023-01-03T08:27:10.555Z,96.27
2023-01-03T08:28:10.573Z,96.27
2023-01-03T08:29:10.536Z,95.92
2023-01-03T08:30:10.517Z,95.92
2023-01-03T08:31:10.580Z,96.12
2023-01-03T08:32:10.529Z,96.27
2023-01-03T08:33:10.494Z,96.27
2023-01-03T08:34:16.795Z,96.37
2023-01-03T08:35:11.459Z,96.48
2023-01-03T08:36:10.449Z,96.48
2023-01-03T08:37:10.463Z,96.58
2023-01-03T08:38:10.435Z,96.58
2023-01-03T08:39:10.402Z,96.69
2023-01-03T08:40:10.387Z,96.89
2023-01-03T08:41:10.366Z,96.89
2023-01-03T08:42:11.035Z,96.99
2023-01-03T08:43:10.361Z,96.99
2023-01-03T08:44:10.334Z,96.89
2023-01-03T08:45:10.323Z,96.89
2023-01-03T08:46:10.404Z,96.89
2023-01-03T08:47:10.431Z,96.79
2023-01-03T08:48:10.298Z,96.79
2023-01-03T08:49:10.264Z,96.69
2023-01-03T08:50:10.255Z,96.79
2023-01-03T08:51:10.237Z,96.79
2023-01-03T08:52:10.224Z,96.94
2023-01-03T08:53:10.235Z,97.04
2023-01-03T08:54:10.206Z,97.14
2023-01-03T08:55:10.201Z,97.04
2023-01-03T08:56:10.180Z,97.04
2023-01-03T08:57:10.174Z,97.04
2023-01-03T08:58:10.183Z,97.14
2023-01-03T08:59:10.148Z,97.14
2023-01-03T09:00:10.141Z,97.09
2023-01-03T09:01:10.195Z,97.09
2023-01-03T09:02:10.292Z,96.89
2023-01-03T09:03:10.390Z,96.48
2023-01-03T09:04:10.200Z,96.48
2023-01-03T09:05:10.065Z,96.12
2023-01-03T09:06:10.088Z,96.02
2023-01-03T09:07:10.029Z,96.02
2023-01-03T09:08:10.032Z,96.06
2023-01-03T09:09:10.011Z,96.02
2023-01-03T09:10:09.997Z,96.02
2023-01-03T09:11:09.978Z,96.17
2023-01-03T09:12:09.967Z,96.27
2023-01-03T09:13:09.970Z,96.27
2023-01-03T09:14:09.967Z,96.17
2023-01-03T09:15:09.929Z,96.23
2023-01-03T09:16:10.012Z,96.12
2023-01-03T09:17:09.897Z,96.02
2023-01-03T09:18:09.968Z,96.12
2023-01-03T09:19:09.888Z,96.23
2023-01-03T09:20:09.861Z,96.23
2023-01-03T09:21:09.846Z,96.23
2023-01-03T09:22:09.839Z,96.02
2023-01-03T09:23:09.845Z,95.92
2023-01-03T09:24:09.824Z,95.92
2023-01-03T09:25:09.796Z,95.77
2023-01-03T09:26:09.779Z,95.46
2023-01-03T09:27:09.767Z,95.00
2023-01-03T09:28:09.780Z,94.70
2023-01-03T09:29:09.768Z,94.38
2023-01-03T09:30:09.730Z,94.24
2023-01-03T09:31:09.795Z,93.83
2023-01-03T09:32:09.739Z,93.73
2023-01-03T09:33:09.713Z,93.41
2023-01-03T09:34:09.712Z,93.62
2023-01-03T09:35:09.704Z,93.62
2023-01-03T09:36:09.665Z,93.52
2023-01-03T09:37:09.637Z,93.31
2023-01-03T09:38:09.797Z,93.41
2023-01-03T09:39:09.614Z,93.58
2023-01-03T09:40:09.605Z,93.16
2023-01-03T09:41:09.592Z,92.76
2023-01-03T09:42:09.575Z,92.24
2023-01-03T09:43:09.575Z,92.61
2023-01-03T09:44:09.569Z,92.10
2023-01-03T09:45:09.548Z,92.20
2023-01-03T09:46:09.523Z,92.05
2023-01-03T09:47:09.606Z,91.64
2023-01-03T09:48:09.532Z,91.64
2023-01-03T09:49:09.486Z,91.60
2023-01-03T09:50:29.592Z,90.67
2023-01-03T09:51:22.704Z,90.81
2023-01-03T09:52:10.440Z,90.51
2023-01-03T09:53:09.452Z,91.13
2023-01-03T09:54:09.417Z,90.51
2023-01-03T09:55:09.403Z,90.20
2023-01-03T09:56:09.385Z,90.30
2023-01-03T09:57:09.376Z,90.09
2023-01-03T09:58:09.363Z,90.30
2023-01-03T09:59:09.383Z,89.79
2023-01-03T10:00:09.373Z,89.69
2023-01-03T10:01:09.481Z,90.09
2023-01-03T10:02:09.562Z,88.96
2023-01-03T10:03:09.317Z,88.82
2023-01-03T10:04:09.296Z,88.76
2023-01-03T10:05:09.322Z,88.96
2023-01-03T10:06:09.248Z,89.48
2023-01-03T10:07:09.242Z,88.45
2023-01-03T10:08:09.226Z,88.45
2023-01-03T10:09:09.251Z,89.22
2023-01-03T10:10:14.040Z,89.01
2023-01-03T10:11:10.200Z,89.77
2023-01-03T10:12:09.172Z,89.97
2023-01-03T10:13:11.320Z,90.39
2023-01-03T10:14:10.177Z,90.59
2023-01-03T10:15:09.136Z,91.00
2023-01-03T10:16:09.197Z,90.90
2023-01-03T10:17:09.113Z,90.69
2023-01-03T10:18:09.091Z,90.39
2023-01-03T10:19:09.275Z,90.90
2023-01-03T10:20:09.079Z,91.11
2023-01-03T10:21:09.066Z,90.49
2023-01-03T10:22:09.047Z,90.24
2023-01-03T10:23:09.036Z,89.73
2023-01-03T10:24:09.027Z,89.52
2023-01-03T10:25:09.021Z,89.42
2023-01-03T10:26:08.989Z,89.62
2023-01-03T10:27:08.993Z,88.90
2023-01-03T10:28:08.966Z,88.59
2023-01-03T10:29:08.969Z,89.22
2023-01-03T10:30:08.937Z,89.25
2023-01-03T10:31:08.951Z,89.36
2023-01-03T10:32:08.945Z,89.77
2023-01-03T10:33:08.907Z,89.25
2023-01-03T10:34:08.903Z,89.25
2023-01-03T10:35:08.878Z,89.56
2023-01-03T10:36:08.861Z,89.87
2023-01-03T10:37:08.859Z,89.56
2023-01-03T10:38:08.836Z,89.77
2023-01-03T10:39:08.864Z,89.25
2023-01-03T10:40:08.818Z,89.22
2023-01-03T10:41:08.798Z,89.15
2023-01-03T10:42:08.786Z,89.46
2023-01-03T10:43:08.769Z,88.23
2023-01-03T10:44:08.772Z,87.87
2023-01-03T10:45:08.746Z,87.46
2023-01-03T10:46:08.791Z,86.95
2023-01-03T10:47:08.716Z,87.15
2023-01-03T10:48:08.694Z,87.26
2023-01-03T10:50:09.672Z,86.91
2023-01-03T10:51:08.682Z,86.60
2023-01-03T10:52:08.644Z,86.29
2023-01-03T10:53:08.648Z,86.60
2023-01-03T10:54:08.635Z,86.80
2023-01-03T10:55:08.613Z,86.25
2023-01-03T10:56:08.605Z,85.63
2023-01-03T10:57:08.592Z,85.18
2023-01-03T10:58:08.566Z,84.77
2023-01-03T10:59:08.573Z,84.16
2023-01-03T11:00:08.565Z,84.81
2023-01-03T11:01:08.601Z,84.71
2023-01-03T11:02:08.842Z,85.41
2023-01-03T11:03:08.647Z,85.98
2023-01-03T11:04:08.523Z,85.98
2023-01-03T11:05:08.480Z,85.06
2023-01-03T11:06:08.461Z,85.47
2023-01-03T11:07:08.468Z,84.95
2023-01-03T11:08:08.433Z,85.26
2023-01-03T11:09:08.446Z,86.08
2023-01-03T11:10:08.402Z,85.26
2023-01-03T11:11:08.433Z,85.78
2023-01-03T11:12:08.385Z,85.43
2023-01-03T11:13:08.371Z,84.61
2023-01-03T11:14:08.372Z,84.05
2023-01-03T11:15:08.351Z,84.05
2023-01-03T11:16:08.396Z,84.01
2023-01-03T11:17:08.387Z,83.70
2023-01-03T11:18:08.290Z,83.36
2023-01-03T11:19:08.310Z,82.75
2023-01-03T11:20:08.272Z,82.64
2023-01-03T11:21:08.260Z,82.03
2023-01-03T11:22:08.260Z,82.27
2023-01-03T11:23:08.248Z,82.68
2023-01-03T11:24:08.241Z,82.62
2023-01-03T11:25:08.237Z,82.82
2023-01-03T11:26:08.230Z,83.70
2023-01-03T11:27:08.181Z,82.99
2023-01-03T11:28:13.829Z,82.27
2023-01-03T11:29:09.176Z,82.68
2023-01-03T11:30:08.138Z,82.75
2023-01-03T11:31:08.128Z,82.13
2023-01-03T11:32:08.229Z,80.55
2023-01-03T11:33:08.126Z,80.24
2023-01-03T11:34:08.099Z,80.24
2023-01-03T11:35:25.012Z,80.00
2023-01-03T11:36:09.072Z,79.08
2023-01-03T11:37:08.049Z,78.36
2023-01-03T11:38:08.040Z,77.95
2023-01-03T11:39:14.456Z,77.54
2023-01-03T11:40:09.016Z,77.84
2023-01-03T11:41:08.003Z,77.74
2023-01-03T11:42:07.988Z,76.72
2023-01-03T11:43:07.967Z,76.89
2023-01-03T11:44:07.979Z,76.99
2023-01-03T11:45:07.988Z,75.86
2023-01-03T11:46:08.023Z,76.31
2023-01-03T11:47:07.927Z,75.79
2023-01-03T11:48:07.907Z,76.51
2023-01-03T11:49:07.931Z,76.41
2023-01-03T11:50:07.871Z,76.31
2023-01-03T11:51:07.908Z,76.51
2023-01-03T11:52:07.847Z,76.20
2023-01-03T11:53:08.146Z,76.10
2023-01-03T11:54:07.849Z,76.68
2023-01-03T11:55:07.816Z,76.68
2023-01-03T11:56:07.796Z,76.17
2023-01-03T11:57:07.790Z,75.96
2023-01-03T11:58:07.776Z,76.24
2023-01-03T11:59:07.776Z,76.14
2023-01-03T12:00:07.748Z,75.73
2023-01-03T12:01:07.791Z,75.82
2023-01-03T12:02:07.838Z,75.82
2023-01-03T12:03:07.884Z,75.62
2023-01-03T12:04:07.826Z,75.48
2023-01-03T12:05:07.690Z,75.31
2023-01-03T12:06:07.688Z,75.07
2023-01-03T12:07:45.875Z,74.66
2023-01-03T12:08:08.655Z,74.70
2023-01-03T12:09:07.668Z,75.73
2023-01-03T12:10:07.650Z,75.31
2023-01-03T12:11:07.616Z,74.94
2023-01-03T12:12:07.659Z,76.54
2023-01-03T12:13:07.623Z,75.73
2023-01-03T12:14:07.564Z,76.44
2023-01-03T12:15:07.549Z,75.69
2023-01-03T12:16:07.600Z,75.59
2023-01-03T12:17:07.550Z,75.69
2023-01-03T12:18:07.503Z,75.99
2023-01-03T12:19:12.357Z,75.59
2023-01-03T12:20:08.483Z,75.69
2023-01-03T12:21:07.464Z,75.89
2023-01-03T12:22:07.457Z,75.79
2023-01-03T12:23:07.451Z,75.38
2023-01-03T12:24:07.445Z,75.07
2023-01-03T12:25:07.418Z,75.76
2023-01-03T12:26:07.396Z,74.56
2023-01-03T12:27:07.410Z,74.66
2023-01-03T12:28:07.381Z,74.36
2023-01-03T12:29:07.384Z,74.36
2023-01-03T12:30:07.363Z,74.66
2023-01-03T12:31:07.380Z,74.77
2023-01-03T12:32:07.443Z,75.28
2023-01-03T12:33:07.311Z,75.38
2023-01-03T12:34:07.334Z,74.36
2023-01-03T12:35:07.312Z,74.46
2023-01-03T12:36:07.266Z,74.46
2023-01-03T12:37:07.265Z,74.46
2023-01-03T12:38:07.259Z,74.08
2023-01-03T12:39:07.243Z,74.49
2023-01-03T12:40:07.233Z,75.07
2023-01-03T12:41:07.218Z,74.36
2023-01-03T12:42:07.204Z,73.64
2023-01-03T12:43:07.202Z,74.77
2023-01-03T12:44:07.175Z,75.38
2023-01-03T12:45:07.163Z,74.56
2023-01-03T12:46:12.568Z,74.32
2023-01-03T12:47:08.949Z,75.35
2023-01-03T12:48:07.118Z,74.84
2023-01-03T12:49:07.104Z,74.22
2023-01-03T12:50:07.099Z,74.02
2023-01-03T12:51:07.082Z,73.81
2023-01-03T12:52:11.507Z,74.22
2023-01-03T12:53:08.064Z,74.84